sensor_id;sensor_type;location;lat;lon;timestamp;P1;durP1;ratioP1;P2;durP2;ratioP2
41897;SDS011;27576;53.366;-1.498;2024-03-22T00:00:28;3.58;;;3.17;;
41897;SDS011;27576;53.366;-1.498;2024-03-22T00:02:53;3.95;;;3.58;;
41897;SDS011;27576;53.366;-1.498;2024-03-22T00:05:18;3.35;;;3.05;;
41897;SDS011;27576;53.366;-1.498;2024-03-22T00:07:46;2.70;;;2.50;;
41897;SDS011;27576;53.366;-1.498;2024-03-22T00:10:11;3.75;;;2.80;;
41897;SDS011;27576;53.366;-1.498;2024-03-22T00:12:36;3.20;;;2.85;;
41897;SDS011;27576;53.366;-1.498;2024-03-22T00:15:02;4.50;;;2.80;;
41897;SDS011;27576;53.366;-1.498;2024-03-22T00:17:27;2.85;;;2.40;;
41897;SDS011;27576;53.366;-1.498;2024-03-22T00:19:53;4.93;;;2.67;;
41897;SDS011;27576;53.366;-1.498;2024-03-22T00:22:18;3.20;;;2.85;;
41897;SDS011;27576;53.366;-1.498;2024-03-22T00:24:43;2.72;;;2.30;;
41897;SDS011;27576;53.366;-1.498;2024-03-22T00:27:09;2.30;;;2.10;;
41897;SDS011;27576;53.366;-1.498;2024-03-22T00:29:36;2.38;;;2.13;;
41897;SDS011;27576;53.366;-1.498;2024-03-22T00:32:02;2.88;;;2.25;;
41897;SDS011;27576;53.366;-1.498;2024-03-22T00:34:27;2.63;;;1.90;;
41897;SDS011;27576;53.366;-1.498;2024-03-22T00:36:53;2.10;;;1.58;;
41897;SDS011;27576;53.366;-1.498;2024-03-22T00:39:18;2.50;;;1.90;;
41897;SDS011;27576;53.366;-1.498;2024-03-22T00:41:43;2.25;;;1.75;;
41897;SDS011;27576;53.366;-1.498;2024-03-22T00:44:09;1.98;;;1.55;;
41897;SDS011;27576;53.366;-1.498;2024-03-22T00:46:34;1.83;;;1.60;;
41897;SDS011;27576;53.366;-1.498;2024-03-22T00:49:00;1.70;;;1.60;;
41897;SDS011;27576;53.366;-1.498;2024-03-22T00:51:26;1.80;;;1.70;;
41897;SDS011;27576;53.366;-1.498;2024-03-22T00:53:51;1.70;;;1.60;;
41897;SDS011;27576;53.366;-1.498;2024-03-22T00:56:17;2.00;;;1.50;;
41897;SDS011;27576;53.366;-1.498;2024-03-22T00:58:43;1.20;;;1.17;;
41897;SDS011;27576;53.366;-1.498;2024-03-22T01:01:08;1.20;;;1.10;;
41897;SDS011;27576;53.366;-1.498;2024-03-22T01:03:33;0.95;;;0.95;;
41897;SDS011;27576;53.366;-1.498;2024-03-22T01:05:59;3.35;;;1.40;;
41897;SDS011;27576;53.366;-1.498;2024-03-22T01:08:24;1.58;;;1.00;;
41897;SDS011;27576;53.366;-1.498;2024-03-22T01:10:50;0.93;;;0.93;;
41897;SDS011;27576;53.366;-1.498;2024-03-22T01:13:16;2.13;;;1.25;;
41897;SDS011;27576;53.366;-1.498;2024-03-22T01:15:41;1.30;;;1.20;;
41897;SDS011;27576;53.366;-1.498;2024-03-22T01:18:07;1.10;;;1.00;;
41897;SDS011;27576;53.366;-1.498;2024-03-22T01:20:33;1.73;;;1.63;;
41897;SDS011;27576;53.366;-1.498;2024-03-22T01:22:59;2.40;;;2.20;;
41897;SDS011;27576;53.366;-1.498;2024-03-22T01:25:25;4.93;;;4.43;;
41897;SDS011;27576;53.366;-1.498;2024-03-22T01:27:51;7.32;;;6.72;;
41897;SDS011;27576;53.366;-1.498;2024-03-22T01:30:16;8.13;;;7.43;;
41897;SDS011;27576;53.366;-1.498;2024-03-22T01:32:42;6.47;;;5.95;;
41897;SDS011;27576;53.366;-1.498;2024-03-22T01:35:07;6.30;;;5.80;;
41897;SDS011;27576;53.366;-1.498;2024-03-22T01:37:33;5.32;;;4.00;;
41897;SDS011;27576;53.366;-1.498;2024-03-22T01:39:58;2.53;;;2.33;;
41897;SDS011;27576;53.366;-1.498;2024-03-22T01:42:24;1.90;;;1.80;;
41897;SDS011;27576;53.366;-1.498;2024-03-22T01:44:49;1.90;;;1.80;;
41897;SDS011;27576;53.366;-1.498;2024-03-22T01:47:15;1.30;;;1.20;;
41897;SDS011;27576;53.366;-1.498;2024-03-22T01:49:41;1.27;;;1.17;;
41897;SDS011;27576;53.366;-1.498;2024-03-22T01:52:06;0.90;;;0.90;;
41897;SDS011;27576;53.366;-1.498;2024-03-22T01:54:32;1.55;;;0.95;;
41897;SDS011;27576;53.366;-1.498;2024-03-22T01:56:57;1.05;;;0.73;;
41897;SDS011;27576;53.366;-1.498;2024-03-22T01:59:23;2.35;;;0.90;;
41897;SDS011;27576;53.366;-1.498;2024-03-22T02:01:49;0.52;;;0.52;;
41897;SDS011;27576;53.366;-1.498;2024-03-22T02:04:14;0.82;;;0.82;;
41897;SDS011;27576;53.366;-1.498;2024-03-22T02:06:40;1.00;;;0.85;;
41897;SDS011;27576;53.366;-1.498;2024-03-22T02:09:05;1.55;;;0.55;;
41897;SDS011;27576;53.366;-1.498;2024-03-22T02:11:34;0.60;;;0.60;;
41897;SDS011;27576;53.366;-1.498;2024-03-22T02:14:02;0.57;;;0.50;;
41897;SDS011;27576;53.366;-1.498;2024-03-22T02:16:28;1.02;;;0.50;;
41897;SDS011;27576;53.366;-1.498;2024-03-22T02:18:53;1.05;;;0.60;;
41897;SDS011;27576;53.366;-1.498;2024-03-22T02:21:19;1.73;;;0.70;;
41897;SDS011;27576;53.366;-1.498;2024-03-22T02:23:44;0.65;;;0.65;;
41897;SDS011;27576;53.366;-1.498;2024-03-22T02:26:09;0.63;;;0.60;;
41897;SDS011;27576;53.366;-1.498;2024-03-22T02:28:35;0.55;;;0.55;;
41897;SDS011;27576;53.366;-1.498;2024-03-22T02:31:01;1.40;;;0.70;;
41897;SDS011;27576;53.366;-1.498;2024-03-22T02:33:28;1.25;;;0.55;;
41897;SDS011;27576;53.366;-1.498;2024-03-22T02:35:53;1.08;;;0.70;;
41897;SDS011;27576;53.366;-1.498;2024-03-22T02:38:19;0.70;;;0.70;;
41897;SDS011;27576;53.366;-1.498;2024-03-22T02:40:44;0.75;;;0.70;;
41897;SDS011;27576;53.366;-1.498;2024-03-22T02:43:11;0.73;;;0.70;;
41897;SDS011;27576;53.366;-1.498;2024-03-22T02:45:36;0.85;;;0.80;;
41897;SDS011;27576;53.366;-1.498;2024-03-22T02:48:02;1.60;;;0.93;;
41897;SDS011;27576;53.366;-1.498;2024-03-22T02:50:32;1.58;;;1.00;;
41897;SDS011;27576;53.366;-1.498;2024-03-22T02:52:58;1.65;;;1.30;;
41897;SDS011;27576;53.366;-1.498;2024-03-22T02:55:24;2.22;;;1.15;;
41897;SDS011;27576;53.366;-1.498;2024-03-22T02:57:49;2.58;;;1.15;;
41897;SDS011;27576;53.366;-1.498;2024-03-22T03:00:15;3.35;;;1.17;;
41897;SDS011;27576;53.366;-1.498;2024-03-22T03:02:40;0.93;;;0.93;;
41897;SDS011;27576;53.366;-1.498;2024-03-22T03:05:06;3.05;;;1.23;;
41897;SDS011;27576;53.366;-1.498;2024-03-22T03:07:31;2.95;;;1.35;;
41897;SDS011;27576;53.366;-1.498;2024-03-22T03:09:57;4.43;;;1.48;;
41897;SDS011;27576;53.366;-1.498;2024-03-22T03:12:22;3.67;;;1.50;;
41897;SDS011;27576;53.366;-1.498;2024-03-22T03:14:47;2.97;;;1.38;;
41897;SDS011;27576;53.366;-1.498;2024-03-22T03:17:13;7.00;;;2.10;;
41897;SDS011;27576;53.366;-1.498;2024-03-22T03:19:38;4.15;;;1.80;;
41897;SDS011;27576;53.366;-1.498;2024-03-22T03:22:03;3.15;;;1.60;;
41897;SDS011;27576;53.366;-1.498;2024-03-22T03:24:29;7.45;;;2.15;;
41897;SDS011;27576;53.366;-1.498;2024-03-22T03:26:54;6.65;;;1.90;;
41897;SDS011;27576;53.366;-1.498;2024-03-22T03:29:20;6.78;;;2.25;;
41897;SDS011;27576;53.366;-1.498;2024-03-22T03:31:45;9.30;;;2.22;;
41897;SDS011;27576;53.366;-1.498;2024-03-22T03:34:11;10.93;;;2.45;;
41897;SDS011;27576;53.366;-1.498;2024-03-22T03:36:36;5.80;;;1.88;;
41897;SDS011;27576;53.366;-1.498;2024-03-22T03:39:01;8.80;;;2.30;;
41897;SDS011;27576;53.366;-1.498;2024-03-22T03:41:27;9.20;;;2.78;;
41897;SDS011;27576;53.366;-1.498;2024-03-22T03:43:53;8.18;;;2.40;;
41897;SDS011;27576;53.366;-1.498;2024-03-22T03:46:18;12.85;;;2.85;;
41897;SDS011;27576;53.366;-1.498;2024-03-22T03:48:43;13.05;;;3.25;;
41897;SDS011;27576;53.366;-1.498;2024-03-22T03:51:09;16.48;;;3.70;;
41897;SDS011;27576;53.366;-1.498;2024-03-22T03:53:34;15.50;;;3.72;;
41897;SDS011;27576;53.366;-1.498;2024-03-22T03:55:59;13.57;;;3.40;;
41897;SDS011;27576;53.366;-1.498;2024-03-22T03:58:25;15.25;;;3.55;;
41897;SDS011;27576;53.366;-1.498;2024-03-22T04:00:50;16.67;;;4.07;;
41897;SDS011;27576;53.366;-1.498;2024-03-22T04:03:16;19.40;;;4.10;;
41897;SDS011;27576;53.366;-1.498;2024-03-22T04:05:41;17.65;;;3.85;;
41897;SDS011;27576;53.366;-1.498;2024-03-22T04:08:07;18.33;;;4.05;;
41897;SDS011;27576;53.366;-1.498;2024-03-22T04:10:32;20.38;;;4.22;;
41897;SDS011;27576;53.366;-1.498;2024-03-22T04:12:57;12.70;;;3.63;;
41897;SDS011;27576;53.366;-1.498;2024-03-22T04:15:23;15.82;;;4.20;;
41897;SDS011;27576;53.366;-1.498;2024-03-22T04:17:48;12.52;;;3.38;;
41897;SDS011;27576;53.366;-1.498;2024-03-22T04:20:14;18.23;;;4.55;;
41897;SDS011;27576;53.366;-1.498;2024-03-22T04:22:39;19.55;;;4.25;;
41897;SDS011;27576;53.366;-1.498;2024-03-22T04:25:05;15.77;;;3.95;;
41897;SDS011;27576;53.366;-1.498;2024-03-22T04:27:31;18.60;;;4.30;;
41897;SDS011;27576;53.366;-1.498;2024-03-22T04:29:56;19.15;;;4.50;;
41897;SDS011;27576;53.366;-1.498;2024-03-22T04:32:22;20.45;;;4.50;;
41897;SDS011;27576;53.366;-1.498;2024-03-22T04:34:47;14.93;;;4.22;;
41897;SDS011;27576;53.366;-1.498;2024-03-22T04:37:12;13.88;;;4.28;;
41897;SDS011;27576;53.366;-1.498;2024-03-22T04:39:39;18.42;;;4.68;;
41897;SDS011;27576;53.366;-1.498;2024-03-22T04:42:05;21.48;;;5.05;;
41897;SDS011;27576;53.366;-1.498;2024-03-22T04:44:31;21.50;;;4.93;;
41897;SDS011;27576;53.366;-1.498;2024-03-22T04:46:56;22.08;;;5.63;;
41897;SDS011;27576;53.366;-1.498;2024-03-22T04:49:21;26.90;;;6.30;;
41897;SDS011;27576;53.366;-1.498;2024-03-22T04:51:47;26.20;;;6.28;;
41897;SDS011;27576;53.366;-1.498;2024-03-22T04:54:12;27.58;;;5.75;;
41897;SDS011;27576;53.366;-1.498;2024-03-22T04:56:39;29.30;;;6.03;;
41897;SDS011;27576;53.366;-1.498;2024-03-22T04:59:04;30.63;;;5.63;;
41897;SDS011;27576;53.366;-1.498;2024-03-22T05:01:30;28.15;;;6.43;;
41897;SDS011;27576;53.366;-1.498;2024-03-22T05:03:55;26.38;;;5.78;;
41897;SDS011;27576;53.366;-1.498;2024-03-22T05:06:20;23.10;;;5.47;;
41897;SDS011;27576;53.366;-1.498;2024-03-22T05:08:46;22.67;;;5.60;;
41897;SDS011;27576;53.366;-1.498;2024-03-22T05:11:11;25.13;;;5.88;;
41897;SDS011;27576;53.366;-1.498;2024-03-22T05:13:36;32.03;;;6.68;;
41897;SDS011;27576;53.366;-1.498;2024-03-22T05:16:04;37.78;;;6.75;;
41897;SDS011;27576;53.366;-1.498;2024-03-22T05:18:30;37.28;;;7.13;;
41897;SDS011;27576;53.366;-1.498;2024-03-22T05:20:55;28.95;;;6.80;;
41897;SDS011;27576;53.366;-1.498;2024-03-22T05:23:20;35.15;;;6.63;;
41897;SDS011;27576;53.366;-1.498;2024-03-22T05:25:46;38.08;;;6.93;;
41897;SDS011;27576;53.366;-1.498;2024-03-22T05:28:11;36.05;;;7.03;;
41897;SDS011;27576;53.366;-1.498;2024-03-22T05:30:37;39.20;;;6.40;;
41897;SDS011;27576;53.366;-1.498;2024-03-22T05:33:02;34.53;;;6.22;;
41897;SDS011;27576;53.366;-1.498;2024-03-22T05:35:28;33.40;;;6.72;;
41897;SDS011;27576;53.366;-1.498;2024-03-22T05:37:53;33.80;;;6.13;;
41897;SDS011;27576;53.366;-1.498;2024-03-22T05:40:18;28.25;;;5.70;;
41897;SDS011;27576;53.366;-1.498;2024-03-22T05:42:44;44.63;;;8.02;;
41897;SDS011;27576;53.366;-1.498;2024-03-22T05:45:09;36.17;;;7.20;;
41897;SDS011;27576;53.366;-1.498;2024-03-22T05:47:34;33.13;;;6.75;;
41897;SDS011;27576;53.366;-1.498;2024-03-22T05:50:02;27.88;;;6.15;;
41897;SDS011;27576;53.366;-1.498;2024-03-22T05:52:28;24.05;;;6.10;;
41897;SDS011;27576;53.366;-1.498;2024-03-22T05:54:54;28.80;;;6.30;;
41897;SDS011;27576;53.366;-1.498;2024-03-22T05:57:19;35.15;;;6.95;;
41897;SDS011;27576;53.366;-1.498;2024-03-22T05:59:44;39.97;;;7.43;;
41897;SDS011;27576;53.366;-1.498;2024-03-22T06:02:10;31.42;;;6.88;;
41897;SDS011;27576;53.366;-1.498;2024-03-22T06:04:35;33.95;;;7.55;;
41897;SDS011;27576;53.366;-1.498;2024-03-22T06:07:01;41.33;;;7.53;;
41897;SDS011;27576;53.366;-1.498;2024-03-22T06:09:29;27.40;;;6.30;;
41897;SDS011;27576;53.366;-1.498;2024-03-22T06:12:11;26.27;;;5.95;;
41897;SDS011;27576;53.366;-1.498;2024-03-22T06:14:43;24.90;;;6.45;;
41897;SDS011;27576;53.366;-1.498;2024-03-22T06:17:09;47.67;;;7.40;;
41897;SDS011;27576;53.366;-1.498;2024-03-22T06:19:35;29.42;;;6.35;;
41897;SDS011;27576;53.366;-1.498;2024-03-22T06:22:01;32.05;;;7.35;;
41897;SDS011;27576;53.366;-1.498;2024-03-22T06:24:27;28.65;;;6.05;;
41897;SDS011;27576;53.366;-1.498;2024-03-22T06:26:53;36.28;;;6.65;;
41897;SDS011;27576;53.366;-1.498;2024-03-22T06:29:18;43.38;;;7.97;;
41897;SDS011;27576;53.366;-1.498;2024-03-22T06:31:43;43.88;;;8.27;;
41897;SDS011;27576;53.366;-1.498;2024-03-22T06:34:09;35.60;;;7.10;;
41897;SDS011;27576;53.366;-1.498;2024-03-22T06:36:34;32.65;;;6.25;;
41897;SDS011;27576;53.366;-1.498;2024-03-22T06:39:00;42.20;;;7.75;;
41897;SDS011;27576;53.366;-1.498;2024-03-22T06:41:25;41.28;;;7.93;;
41897;SDS011;27576;53.366;-1.498;2024-03-22T06:43:52;35.15;;;7.45;;
41897;SDS011;27576;53.366;-1.498;2024-03-22T06:46:18;36.03;;;7.68;;
41897;SDS011;27576;53.366;-1.498;2024-03-22T06:48:43;36.22;;;7.30;;
41897;SDS011;27576;53.366;-1.498;2024-03-22T06:51:08;41.22;;;8.43;;
41897;SDS011;27576;53.366;-1.498;2024-03-22T06:53:34;39.70;;;7.95;;
41897;SDS011;27576;53.366;-1.498;2024-03-22T06:55:59;31.10;;;6.90;;
41897;SDS011;27576;53.366;-1.498;2024-03-22T06:58:25;30.98;;;7.57;;
41897;SDS011;27576;53.366;-1.498;2024-03-22T07:00:50;28.77;;;6.43;;
41897;SDS011;27576;53.366;-1.498;2024-03-22T07:03:15;36.38;;;7.35;;
41897;SDS011;27576;53.366;-1.498;2024-03-22T07:05:42;32.10;;;6.53;;
41897;SDS011;27576;53.366;-1.498;2024-03-22T07:08:07;34.42;;;7.10;;
41897;SDS011;27576;53.366;-1.498;2024-03-22T07:10:33;34.00;;;6.85;;
41897;SDS011;27576;53.366;-1.498;2024-03-22T07:12:59;27.27;;;5.95;;
41897;SDS011;27576;53.366;-1.498;2024-03-22T07:15:24;45.42;;;8.68;;
41897;SDS011;27576;53.366;-1.498;2024-03-22T07:17:50;39.28;;;6.97;;
41897;SDS011;27576;53.366;-1.498;2024-03-22T07:20:16;30.60;;;6.95;;
41897;SDS011;27576;53.366;-1.498;2024-03-22T07:22:41;40.17;;;7.28;;
41897;SDS011;27576;53.366;-1.498;2024-03-22T07:25:07;35.17;;;6.30;;
41897;SDS011;27576;53.366;-1.498;2024-03-22T07:27:34;35.08;;;6.57;;
41897;SDS011;27576;53.366;-1.498;2024-03-22T07:30:00;30.15;;;5.90;;
41897;SDS011;27576;53.366;-1.498;2024-03-22T07:32:26;28.90;;;6.47;;
41897;SDS011;27576;53.366;-1.498;2024-03-22T07:34:51;33.58;;;6.65;;
41897;SDS011;27576;53.366;-1.498;2024-03-22T07:37:17;30.75;;;5.90;;
41897;SDS011;27576;53.366;-1.498;2024-03-22T07:39:42;27.02;;;5.38;;
41897;SDS011;27576;53.366;-1.498;2024-03-22T07:42:07;30.05;;;7.28;;
41897;SDS011;27576;53.366;-1.498;2024-03-22T07:44:33;29.25;;;6.38;;
41897;SDS011;27576;53.366;-1.498;2024-03-22T07:46:58;34.75;;;6.68;;
41897;SDS011;27576;53.366;-1.498;2024-03-22T07:49:23;32.35;;;6.43;;
41897;SDS011;27576;53.366;-1.498;2024-03-22T07:51:49;29.80;;;6.18;;
41897;SDS011;27576;53.366;-1.498;2024-03-22T07:54:14;28.63;;;5.80;;
41897;SDS011;27576;53.366;-1.498;2024-03-22T07:56:40;29.90;;;5.90;;
41897;SDS011;27576;53.366;-1.498;2024-03-22T07:59:05;36.83;;;7.13;;
41897;SDS011;27576;53.366;-1.498;2024-03-22T08:01:31;31.33;;;6.00;;
41897;SDS011;27576;53.366;-1.498;2024-03-22T08:03:56;29.45;;;5.63;;
41897;SDS011;27576;53.366;-1.498;2024-03-22T08:06:21;31.00;;;6.00;;
41897;SDS011;27576;53.366;-1.498;2024-03-22T08:08:47;34.03;;;6.25;;
41897;SDS011;27576;53.366;-1.498;2024-03-22T08:11:12;27.98;;;5.75;;
41897;SDS011;27576;53.366;-1.498;2024-03-22T08:13:37;21.17;;;5.43;;
41897;SDS011;27576;53.366;-1.498;2024-03-22T08:16:03;30.45;;;5.45;;
41897;SDS011;27576;53.366;-1.498;2024-03-22T08:18:29;27.13;;;6.03;;
41897;SDS011;27576;53.366;-1.498;2024-03-22T08:20:54;24.58;;;5.00;;
41897;SDS011;27576;53.366;-1.498;2024-03-22T08:23:20;26.27;;;5.72;;
41897;SDS011;27576;53.366;-1.498;2024-03-22T08:25:47;24.15;;;5.45;;
41897;SDS011;27576;53.366;-1.498;2024-03-22T08:28:13;20.20;;;5.00;;
41897;SDS011;27576;53.366;-1.498;2024-03-22T08:30:38;23.90;;;5.50;;
41897;SDS011;27576;53.366;-1.498;2024-03-22T08:33:04;20.23;;;4.90;;
41897;SDS011;27576;53.366;-1.498;2024-03-22T08:35:29;24.05;;;4.70;;
41897;SDS011;27576;53.366;-1.498;2024-03-22T08:37:55;20.25;;;4.90;;
41897;SDS011;27576;53.366;-1.498;2024-03-22T08:40:21;31.52;;;5.55;;
41897;SDS011;27576;53.366;-1.498;2024-03-22T08:42:48;21.83;;;4.85;;
41897;SDS011;27576;53.366;-1.498;2024-03-22T08:45:13;26.92;;;5.28;;
41897;SDS011;27576;53.366;-1.498;2024-03-22T08:47:39;16.67;;;4.63;;
41897;SDS011;27576;53.366;-1.498;2024-03-22T08:50:05;22.52;;;5.13;;
41897;SDS011;27576;53.366;-1.498;2024-03-22T08:52:31;29.17;;;5.97;;
41897;SDS011;27576;53.366;-1.498;2024-03-22T08:54:57;21.20;;;4.78;;
41897;SDS011;27576;53.366;-1.498;2024-03-22T08:57:22;19.20;;;5.05;;
41897;SDS011;27576;53.366;-1.498;2024-03-22T08:59:48;20.73;;;4.18;;
41897;SDS011;27576;53.366;-1.498;2024-03-22T09:02:13;23.05;;;4.82;;
41897;SDS011;27576;53.366;-1.498;2024-03-22T09:04:39;21.30;;;4.40;;
41897;SDS011;27576;53.366;-1.498;2024-03-22T09:07:05;30.05;;;5.07;;
41897;SDS011;27576;53.366;-1.498;2024-03-22T09:09:30;27.15;;;4.75;;
41897;SDS011;27576;53.366;-1.498;2024-03-22T09:11:56;23.88;;;5.38;;
41897;SDS011;27576;53.366;-1.498;2024-03-22T09:14:21;22.30;;;4.82;;
41897;SDS011;27576;53.366;-1.498;2024-03-22T09:16:46;26.27;;;5.55;;
41897;SDS011;27576;53.366;-1.498;2024-03-22T09:19:12;19.92;;;4.50;;
41897;SDS011;27576;53.366;-1.498;2024-03-22T09:21:37;25.67;;;4.95;;
41897;SDS011;27576;53.366;-1.498;2024-03-22T09:24:03;23.95;;;4.88;;
41897;SDS011;27576;53.366;-1.498;2024-03-22T09:26:28;22.80;;;5.30;;
41897;SDS011;27576;53.366;-1.498;2024-03-22T09:28:54;21.50;;;5.22;;
41897;SDS011;27576;53.366;-1.498;2024-03-22T09:31:19;22.02;;;5.45;;
41897;SDS011;27576;53.366;-1.498;2024-03-22T09:33:45;24.40;;;4.88;;
41897;SDS011;27576;53.366;-1.498;2024-03-22T09:36:10;19.30;;;4.47;;
41897;SDS011;27576;53.366;-1.498;2024-03-22T09:38:36;18.98;;;4.28;;
41897;SDS011;27576;53.366;-1.498;2024-03-22T09:41:01;23.10;;;4.55;;
41897;SDS011;27576;53.366;-1.498;2024-03-22T09:43:26;16.45;;;4.07;;
41897;SDS011;27576;53.366;-1.498;2024-03-22T09:45:52;27.30;;;4.57;;
41897;SDS011;27576;53.366;-1.498;2024-03-22T09:48:20;20.77;;;3.55;;
41897;SDS011;27576;53.366;-1.498;2024-03-22T09:50:48;22.75;;;4.68;;
41897;SDS011;27576;53.366;-1.498;2024-03-22T09:53:18;18.15;;;4.57;;
41897;SDS011;27576;53.366;-1.498;2024-03-22T09:55:44;22.42;;;4.07;;
41897;SDS011;27576;53.366;-1.498;2024-03-22T09:58:12;13.40;;;3.50;;
41897;SDS011;27576;53.366;-1.498;2024-03-22T10:00:37;22.05;;;3.83;;
41897;SDS011;27576;53.366;-1.498;2024-03-22T10:03:03;18.33;;;3.92;;
41897;SDS011;27576;53.366;-1.498;2024-03-22T10:05:29;20.83;;;4.22;;
41897;SDS011;27576;53.366;-1.498;2024-03-22T10:07:55;23.42;;;4.10;;
41897;SDS011;27576;53.366;-1.498;2024-03-22T10:10:21;20.92;;;4.43;;
41897;SDS011;27576;53.366;-1.498;2024-03-22T10:12:46;15.43;;;3.58;;
41897;SDS011;27576;53.366;-1.498;2024-03-22T10:15:12;18.02;;;3.67;;
41897;SDS011;27576;53.366;-1.498;2024-03-22T10:17:38;14.82;;;3.42;;
41897;SDS011;27576;53.366;-1.498;2024-03-22T10:20:05;18.42;;;4.10;;
41897;SDS011;27576;53.366;-1.498;2024-03-22T10:22:37;20.70;;;3.85;;
41897;SDS011;27576;53.366;-1.498;2024-03-22T10:25:04;20.15;;;4.40;;
41897;SDS011;27576;53.366;-1.498;2024-03-22T10:27:31;16.30;;;2.97;;
41897;SDS011;27576;53.366;-1.498;2024-03-22T10:29:57;17.35;;;3.90;;
41897;SDS011;27576;53.366;-1.498;2024-03-22T10:32:23;19.33;;;3.95;;
41897;SDS011;27576;53.366;-1.498;2024-03-22T10:34:49;13.60;;;3.53;;
41897;SDS011;27576;53.366;-1.498;2024-03-22T10:37:16;19.85;;;4.32;;
41897;SDS011;27576;53.366;-1.498;2024-03-22T10:39:42;14.10;;;3.83;;
41897;SDS011;27576;53.366;-1.498;2024-03-22T10:42:09;16.33;;;3.33;;
41897;SDS011;27576;53.366;-1.498;2024-03-22T10:44:37;14.38;;;3.50;;
41897;SDS011;27576;53.366;-1.498;2024-03-22T10:47:02;13.05;;;2.65;;
41897;SDS011;27576;53.366;-1.498;2024-03-22T10:49:30;11.45;;;2.50;;
41897;SDS011;27576;53.366;-1.498;2024-03-22T10:51:59;13.10;;;3.40;;
41897;SDS011;27576;53.366;-1.498;2024-03-22T10:54:34;11.05;;;2.90;;
41897;SDS011;27576;53.366;-1.498;2024-03-22T10:57:03;11.18;;;3.30;;
41897;SDS011;27576;53.366;-1.498;2024-03-22T10:59:33;35.60;;;4.63;;
41897;SDS011;27576;53.366;-1.498;2024-03-22T11:02:03;12.95;;;3.28;;
41897;SDS011;27576;53.366;-1.498;2024-03-22T11:04:32;11.05;;;3.03;;
41897;SDS011;27576;53.366;-1.498;2024-03-22T11:06:57;16.85;;;3.58;;
41897;SDS011;27576;53.366;-1.498;2024-03-22T11:09:26;15.65;;;3.00;;
41897;SDS011;27576;53.366;-1.498;2024-03-22T11:11:52;12.98;;;3.45;;
41897;SDS011;27576;53.366;-1.498;2024-03-22T11:14:19;17.63;;;3.03;;
41897;SDS011;27576;53.366;-1.498;2024-03-22T11:16:50;14.15;;;3.25;;
41897;SDS011;27576;53.366;-1.498;2024-03-22T11:19:16;13.38;;;3.10;;
41897;SDS011;27576;53.366;-1.498;2024-03-22T11:21:42;23.50;;;3.45;;
41897;SDS011;27576;53.366;-1.498;2024-03-22T11:24:07;12.50;;;3.97;;
41897;SDS011;27576;53.366;-1.498;2024-03-22T11:26:33;15.10;;;3.08;;
41897;SDS011;27576;53.366;-1.498;2024-03-22T11:28:59;12.15;;;4.15;;
41897;SDS011;27576;53.366;-1.498;2024-03-22T11:31:25;12.95;;;3.50;;
41897;SDS011;27576;53.366;-1.498;2024-03-22T11:33:55;12.77;;;3.15;;
41897;SDS011;27576;53.366;-1.498;2024-03-22T11:36:21;15.88;;;4.25;;
41897;SDS011;27576;53.366;-1.498;2024-03-22T11:38:48;21.98;;;4.68;;
41897;SDS011;27576;53.366;-1.498;2024-03-22T11:41:16;14.45;;;4.43;;
41897;SDS011;27576;53.366;-1.498;2024-03-22T11:43:44;13.63;;;3.55;;
41897;SDS011;27576;53.366;-1.498;2024-03-22T11:46:12;14.30;;;4.30;;
41897;SDS011;27576;53.366;-1.498;2024-03-22T11:48:42;13.63;;;4.80;;
41897;SDS011;27576;53.366;-1.498;2024-03-22T11:51:08;21.02;;;4.25;;
41897;SDS011;27576;53.366;-1.498;2024-03-22T11:53:34;19.52;;;5.68;;
41897;SDS011;27576;53.366;-1.498;2024-03-22T11:56:00;12.52;;;3.63;;
41897;SDS011;27576;53.366;-1.498;2024-03-22T11:58:28;14.88;;;3.92;;
41897;SDS011;27576;53.366;-1.498;2024-03-22T12:00:54;14.07;;;3.13;;
41897;SDS011;27576;53.366;-1.498;2024-03-22T12:03:21;10.95;;;2.55;;
41897;SDS011;27576;53.366;-1.498;2024-03-22T12:05:47;14.50;;;3.67;;
41897;SDS011;27576;53.366;-1.498;2024-03-22T12:08:13;9.80;;;3.33;;
41897;SDS011;27576;53.366;-1.498;2024-03-22T12:10:39;10.35;;;2.80;;
41897;SDS011;27576;53.366;-1.498;2024-03-22T12:13:04;8.93;;;2.60;;
41897;SDS011;27576;53.366;-1.498;2024-03-22T12:15:30;12.57;;;3.08;;
41897;SDS011;27576;53.366;-1.498;2024-03-22T12:17:55;12.55;;;3.33;;
41897;SDS011;27576;53.366;-1.498;2024-03-22T12:20:20;13.40;;;2.80;;
41897;SDS011;27576;53.366;-1.498;2024-03-22T12:22:46;9.70;;;3.30;;
41897;SDS011;27576;53.366;-1.498;2024-03-22T12:25:12;17.88;;;3.33;;
41897;SDS011;27576;53.366;-1.498;2024-03-22T12:27:37;11.02;;;3.10;;
41897;SDS011;27576;53.366;-1.498;2024-03-22T12:30:03;9.57;;;2.88;;
41897;SDS011;27576;53.366;-1.498;2024-03-22T12:32:28;13.50;;;3.38;;
41897;SDS011;27576;53.366;-1.498;2024-03-22T12:34:54;11.55;;;2.90;;
41897;SDS011;27576;53.366;-1.498;2024-03-22T12:37:19;13.95;;;3.00;;
41897;SDS011;27576;53.366;-1.498;2024-03-22T12:39:45;9.75;;;3.17;;
41897;SDS011;27576;53.366;-1.498;2024-03-22T12:42:10;8.38;;;3.22;;
41897;SDS011;27576;53.366;-1.498;2024-03-22T12:44:35;8.82;;;2.92;;
41897;SDS011;27576;53.366;-1.498;2024-03-22T12:47:01;14.00;;;3.08;;
41897;SDS011;27576;53.366;-1.498;2024-03-22T12:49:26;14.95;;;3.53;;
41897;SDS011;27576;53.366;-1.498;2024-03-22T12:51:51;16.52;;;3.72;;
41897;SDS011;27576;53.366;-1.498;2024-03-22T12:54:17;13.27;;;3.50;;
41897;SDS011;27576;53.366;-1.498;2024-03-22T12:56:43;12.15;;;3.38;;
41897;SDS011;27576;53.366;-1.498;2024-03-22T12:59:09;10.60;;;3.08;;
41897;SDS011;27576;53.366;-1.498;2024-03-22T13:01:35;8.10;;;2.70;;
41897;SDS011;27576;53.366;-1.498;2024-03-22T13:04:01;12.27;;;2.97;;
41897;SDS011;27576;53.366;-1.498;2024-03-22T13:06:27;12.73;;;2.67;;
41897;SDS011;27576;53.366;-1.498;2024-03-22T13:08:52;12.68;;;2.40;;
41897;SDS011;27576;53.366;-1.498;2024-03-22T13:11:18;10.18;;;2.42;;
41897;SDS011;27576;53.366;-1.498;2024-03-22T13:13:43;9.60;;;2.92;;
41897;SDS011;27576;53.366;-1.498;2024-03-22T13:16:09;15.90;;;3.30;;
41897;SDS011;27576;53.366;-1.498;2024-03-22T13:18:36;8.80;;;2.50;;
41897;SDS011;27576;53.366;-1.498;2024-03-22T13:21:02;14.63;;;2.95;;
41897;SDS011;27576;53.366;-1.498;2024-03-22T13:23:30;11.70;;;3.20;;
41897;SDS011;27576;53.366;-1.498;2024-03-22T13:25:55;11.80;;;2.70;;
41897;SDS011;27576;53.366;-1.498;2024-03-22T13:28:24;10.80;;;3.33;;
41897;SDS011;27576;53.366;-1.498;2024-03-22T13:30:49;12.65;;;2.78;;
41897;SDS011;27576;53.366;-1.498;2024-03-22T13:33:24;13.88;;;2.95;;
41897;SDS011;27576;53.366;-1.498;2024-03-22T13:35:50;14.32;;;3.42;;
41897;SDS011;27576;53.366;-1.498;2024-03-22T13:38:15;10.82;;;2.83;;
41897;SDS011;27576;53.366;-1.498;2024-03-22T13:40:41;10.80;;;2.70;;
41897;SDS011;27576;53.366;-1.498;2024-03-22T13:43:06;9.05;;;2.60;;
41897;SDS011;27576;53.366;-1.498;2024-03-22T13:45:32;12.48;;;2.97;;
41897;SDS011;27576;53.366;-1.498;2024-03-22T13:47:58;9.88;;;2.80;;
41897;SDS011;27576;53.366;-1.498;2024-03-22T13:50:23;9.82;;;2.35;;
41897;SDS011;27576;53.366;-1.498;2024-03-22T13:52:48;9.70;;;3.75;;
41897;SDS011;27576;53.366;-1.498;2024-03-22T13:55:14;13.75;;;2.72;;
41897;SDS011;27576;53.366;-1.498;2024-03-22T13:57:39;12.15;;;2.85;;
41897;SDS011;27576;53.366;-1.498;2024-03-22T14:00:05;15.43;;;3.45;;
41897;SDS011;27576;53.366;-1.498;2024-03-22T14:02:32;8.05;;;2.63;;
41897;SDS011;27576;53.366;-1.498;2024-03-22T14:04:58;17.52;;;3.33;;
41897;SDS011;27576;53.366;-1.498;2024-03-22T14:07:23;13.00;;;2.90;;
41897;SDS011;27576;53.366;-1.498;2024-03-22T14:09:48;11.55;;;2.90;;
41897;SDS011;27576;53.366;-1.498;2024-03-22T14:12:14;10.55;;;2.45;;
41897;SDS011;27576;53.366;-1.498;2024-03-22T14:14:39;10.57;;;2.90;;
41897;SDS011;27576;53.366;-1.498;2024-03-22T14:17:05;14.15;;;2.60;;